createdAt,value
2018-07-06T00:03:21.754Z,100853.73
2018-07-06T00:09:25.931Z,100851.98
2018-07-06T00:21:39.549Z,100854.90
2018-07-06T00:24:38.125Z,100856.33
2018-07-06T00:33:51.541Z,100872.88
2018-07-06T00:36:52.425Z,100875.45
2018-07-06T00:42:51.508Z,100881.58
2018-07-06T00:48:51.587Z,100871.13
2018-07-06T00:54:53.492Z,100876.76
2018-07-06T00:58:07.526Z,100882.16
2018-07-06T01:06:20.675Z,100882.26
2018-07-06T01:09:35.664Z,100885.67
2018-07-06T01:15:36.805Z,100883.02
2018-07-06T01:18:34.806Z,100888.92
2018-07-06T01:31:07.267Z,100899.85
2018-07-06T01:58:25.316Z,100917.91
2018-07-06T02:01:23.869Z,100920.88
2018-07-06T02:07:39.765Z,100927.32
2018-07-06T02:10:50.231Z,100924.56
2018-07-06T02:13:50.249Z,100927.77
2018-07-06T08:30:56.325Z,101193.91
2018-07-06T08:33:41.240Z,101192.72
2018-07-06T08:38:48.376Z,101192.92
2018-07-06T08:41:24.547Z,101196.09
2018-07-06T08:43:54.704Z,101195.87
2018-07-06T08:46:32.422Z,101193.11
2018-07-06T08:49:09.215Z,101195.27
2018-07-06T08:51:45.932Z,101198.08
2018-07-06T08:54:20.806Z,101198.70
2018-07-06T08:56:50.933Z,101191.88
2018-07-06T08:59:21.456Z,101195.23
2018-07-06T09:01:52.263Z,101191.23
2018-07-06T09:04:24.049Z,101188.09
2018-07-06T09:06:59.128Z,101189.63
2018-07-06T09:09:38.503Z,101192.70
2018-07-06T09:12:18.516Z,101198.06
2018-07-06T09:15:01.782Z,101196.83
2018-07-06T09:20:34.673Z,101200.91
2018-07-06T09:23:39.226Z,101197.13
2018-07-06T09:39:51.199Z,101200.82
2018-07-06T09:57:16.681Z,101179.20
2018-07-06T10:18:46.385Z,101189.45
2018-07-06T10:28:01.368Z,101187.58
2018-07-06T10:37:00.024Z,101195.28
2018-07-06T10:42:10.236Z,101191.72
2018-07-06T11:00:12.288Z,101180.12
2018-07-06T11:02:44.157Z,101181.45
2018-07-06T11:13:48.749Z,101184.66
2018-07-06T11:16:19.562Z,101177.62
2018-07-06T11:18:49.720Z,101180.77
2018-07-06T11:21:19.696Z,101184.27
2018-07-06T11:23:49.564Z,101181.25
2018-07-06T11:29:48.481Z,101175.87
2018-07-06T14:11:34.177Z,101156.45
2018-07-06T14:14:07.941Z,101160.86
2018-07-06T14:20:14.814Z,101177.20
2018-07-06T14:22:53.297Z,101167.80
2018-07-06T14:25:24.423Z,101166.95
2018-07-06T14:27:54.979Z,101173.69
2018-07-06T14:30:29.430Z,101165.64
2018-07-06T14:33:02.196Z,101170.81
2018-07-06T14:35:32.423Z,101164.45
2018-07-06T14:38:08.746Z,101167.17
2018-07-06T14:41:17.949Z,101156.45
2018-07-06T14:43:57.285Z,101161.57
2018-07-06T14:46:29.280Z,101165.75
2018-07-06T14:49:01.237Z,101160.75
2018-07-06T14:51:32.801Z,101162.46
2018-07-06T14:54:02.771Z,101168.30
2018-07-06T14:56:33.771Z,101169.04
2018-07-06T14:59:03.834Z,101164.50
2018-07-06T15:01:34.006Z,101167.66
2018-07-06T15:04:05.994Z,101171.25
2018-07-06T15:06:36.982Z,101164.34
2018-07-06T15:09:09.912Z,101166.81
2018-07-06T15:11:43.138Z,101168.16
2018-07-06T15:14:17.308Z,101173.53
2018-07-06T15:16:52.317Z,101172.09
2018-07-06T15:19:31.355Z,101167.00
2018-07-06T15:22:01.907Z,101169.08
2018-07-06T15:24:33.792Z,101183.19
2018-07-06T15:27:06.280Z,101179.95
2018-07-06T15:29:39.214Z,101179.92
2018-07-06T15:32:10.230Z,101182.36
2018-07-06T15:34:44.772Z,101186.03
2018-07-06T15:37:17.614Z,101179.53
2018-07-06T15:39:54.730Z,101182.66
2018-07-06T15:42:25.774Z,101183.81
2018-07-06T15:44:59.494Z,101182.73
2018-07-06T15:47:33.766Z,101191.28
2018-07-06T15:50:03.689Z,101186.14
2018-07-06T15:52:34.428Z,101188.58
2018-07-06T15:55:05.682Z,101188.29
2018-07-06T15:57:38.058Z,101188.20
2018-07-06T16:00:10.635Z,101192.63
2018-07-06T16:02:42.359Z,101190.70
2018-07-06T16:05:14.177Z,101188.31
2018-07-06T16:07:46.828Z,101189.54
2018-07-06T16:10:17.335Z,101186.33
2018-07-06T16:12:47.732Z,101192.00
2018-07-06T16:15:18.390Z,101195.09
2018-07-06T16:17:48.929Z,101192.97
2018-07-06T16:20:21.022Z,101195.64
2018-07-06T16:22:51.473Z,101200.98
2018-07-06T16:25:24.693Z,101194.20
2018-07-06T16:27:56.344Z,101188.92
2018-07-06T16:30:28.418Z,101196.86
2018-07-06T16:33:00.266Z,101194.64
2018-07-06T16:35:30.097Z,101200.13
2018-07-06T16:38:01.643Z,101192.77
2018-07-06T16:40:32.149Z,101194.95
2018-07-06T16:43:01.990Z,101193.42
2018-07-06T16:45:32.356Z,101189.13
2018-07-06T16:48:02.515Z,101193.61
2018-07-06T16:50:32.694Z,101192.35
2018-07-06T16:53:02.793Z,101195.22
2018-07-06T16:55:32.924Z,101185.25
2018-07-06T16:58:03.265Z,101194.64
2018-07-06T17:00:33.595Z,101196.20
2018-07-06T17:03:03.523Z,101195.28
2018-07-06T17:05:33.562Z,101191.71
2018-07-06T17:08:03.623Z,101188.31
2018-07-06T17:10:33.198Z,101192.07
2018-07-06T17:13:03.266Z,101194.13
2018-07-06T17:15:33.385Z,101195.87
2018-07-06T17:18:03.283Z,101198.75
2018-07-06T17:20:33.372Z,101199.87
2018-07-06T17:23:03.593Z,101201.34
2018-07-06T17:25:33.655Z,101197.53
2018-07-06T17:28:03.999Z,101198.77
2018-07-06T17:30:34.049Z,101196.69
2018-07-06T17:33:04.111Z,101202.02
2018-07-06T17:35:34.092Z,101202.08
2018-07-06T17:38:04.213Z,101206.48
2018-07-06T17:40:34.447Z,101202.94
2018-07-06T17:43:04.407Z,101207.31
2018-07-06T17:45:34.459Z,101205.15
2018-07-06T17:48:04.271Z,101202.97
2018-07-06T17:50:34.251Z,101205.72
2018-07-06T17:53:04.239Z,101204.94
2018-07-06T17:55:34.199Z,101204.10
2018-07-06T17:58:04.531Z,101201.03
2018-07-06T18:00:34.632Z,101202.38
2018-07-06T18:03:04.796Z,101201.72
2018-07-06T18:05:34.599Z,101203.91
2018-07-06T18:08:04.439Z,101202.03
2018-07-06T18:10:34.475Z,101200.06
2018-07-06T18:13:04.035Z,101204.13
2018-07-06T18:15:34.087Z,101201.32
2018-07-06T18:18:04.049Z,101201.57
2018-07-06T18:20:34.590Z,101202.84
2018-07-06T18:23:05.469Z,101199.48
2018-07-06T18:25:36.326Z,101198.91
2018-07-06T18:28:07.270Z,101204.86
2018-07-06T18:30:37.945Z,101205.61
2018-07-06T18:33:09.792Z,101205.00
2018-07-06T18:35:39.590Z,101207.59
2018-07-06T18:38:10.590Z,101212.27
2018-07-06T18:40:41.684Z,101216.03
2018-07-06T18:43:11.734Z,101214.70
2018-07-06T18:45:41.721Z,101207.95
2018-07-06T18:48:11.902Z,101205.65
2018-07-06T18:50:41.813Z,101212.04
2018-07-06T18:53:12.056Z,101208.16
2018-07-06T18:55:42.447Z,101208.66
2018-07-06T18:58:13.321Z,101209.17
2018-07-06T19:00:43.144Z,101206.39
2018-07-06T19:03:12.996Z,101205.22
2018-07-06T19:05:42.928Z,101204.53
2018-07-06T19:08:12.894Z,101201.23
2018-07-06T19:10:42.770Z,101210.05
2018-07-06T19:13:12.586Z,101210.00
2018-07-06T19:15:42.466Z,101209.65
2018-07-06T19:18:12.617Z,101219.06
2018-07-06T19:20:42.601Z,101213.94
2018-07-06T19:23:12.828Z,101221.75
2018-07-06T19:25:44.339Z,101228.49
2018-07-06T19:28:15.823Z,101230.02
2018-07-06T19:30:47.478Z,101241.42
2018-07-06T19:33:18.292Z,101236.54
2018-07-06T19:35:48.793Z,101247.17
2018-07-06T19:38:20.400Z,101248.42
2018-07-06T19:40:51.688Z,101253.91
2018-07-06T19:43:23.152Z,101256.02
2018-07-06T19:45:54.148Z,101257.77
2018-07-06T19:48:25.323Z,101260.11
2018-07-06T19:50:55.751Z,101266.52
2018-07-06T19:53:25.964Z,101271.88
2018-07-06T19:55:56.220Z,101276.84
2018-07-06T19:58:27.266Z,101275.67
2018-07-06T20:00:57.529Z,101279.60
2018-07-06T20:03:28.209Z,101286.99
2018-07-06T20:05:59.064Z,101284.47
2018-07-06T20:08:29.718Z,101290.13
2018-07-06T20:11:00.331Z,101290.34
2018-07-06T20:13:31.127Z,101299.16
2018-07-06T20:16:01.952Z,101298.11
2018-07-06T20:18:33.568Z,101298.41
2018-07-06T20:21:05.004Z,101299.27
2018-07-06T20:23:35.927Z,101304.52
2018-07-06T20:26:07.400Z,101304.52
2018-07-06T20:28:38.405Z,101308.69
2018-07-06T20:31:08.155Z,101305.76
2018-07-06T20:33:38.482Z,101311.75
2018-07-06T20:36:08.682Z,101315.25
2018-07-06T20:38:39.133Z,101320.79
2018-07-06T20:41:09.266Z,101316.67
2018-07-06T20:43:39.819Z,101318.16
2018-07-06T20:46:09.960Z,101318.22
2018-07-06T20:48:40.007Z,101317.76
2018-07-06T20:51:11.495Z,101321.16
2018-07-06T20:53:41.372Z,101316.30
2018-07-06T20:56:11.212Z,101324.05
2018-07-06T20:58:41.091Z,101324.17
2018-07-06T21:01:10.921Z,101328.16
2018-07-06T21:03:41.315Z,101320.81
2018-07-06T21:06:11.545Z,101333.45
2018-07-06T21:08:43.008Z,101330.58
2018-07-06T21:11:14.911Z,101331.64
2018-07-06T21:13:47.132Z,101329.98
2018-07-06T21:16:19.362Z,101332.59
2018-07-06T21:18:53.001Z,101337.44
2018-07-06T21:21:26.180Z,101333.46
2018-07-06T21:23:59.630Z,101337.79
2018-07-06T21:26:32.008Z,101341.65
2018-07-06T21:29:03.663Z,101342.50
2018-07-06T21:31:37.300Z,101341.41
2018-07-06T21:34:08.707Z,101349.48
2018-07-06T21:36:39.988Z,101352.36
2018-07-06T21:39:10.815Z,101346.45
2018-07-06T21:41:40.706Z,101350.55
2018-07-06T21:44:11.524Z,101352.09
2018-07-06T21:46:41.739Z,101359.13
2018-07-06T21:49:11.712Z,101355.63
2018-07-06T21:51:41.702Z,101357.16
2018-07-06T21:54:11.592Z,101364.00
2018-07-06T21:56:41.499Z,101367.84
2018-07-06T21:59:11.317Z,101366.34
2018-07-06T22:01:41.189Z,101370.92
2018-07-06T22:04:11.065Z,101369.86
2018-07-06T22:06:41.245Z,101367.98
2018-07-06T22:09:11.184Z,101371.45
2018-07-06T22:11:41.687Z,101370.79
2018-07-06T22:14:11.771Z,101376.66
2018-07-06T22:16:41.749Z,101374.91
2018-07-06T22:19:11.655Z,101375.33
2018-07-06T22:21:42.569Z,101373.08
2018-07-06T22:24:18.828Z,101371.58
2018-07-06T22:26:53.887Z,101373.65
2018-07-06T22:29:24.592Z,101382.39
2018-07-06T22:32:07.959Z,101380.41
2018-07-06T22:34:38.445Z,101371.74
2018-07-06T22:39:53.133Z,101383.78
2018-07-06T22:42:24.774Z,101380.38
2018-07-06T22:44:55.585Z,101384.02
2018-07-06T22:47:36.342Z,101385.86
2018-07-06T22:50:10.359Z,101386.13
2018-07-06T22:52:48.343Z,101379.05
2018-07-06T22:55:27.371Z,101385.36
2018-07-06T22:58:06.162Z,101378.58
2018-07-06T23:00:38.069Z,101384.70
2018-07-06T23:03:08.091Z,101384.36
2018-07-06T23:05:39.430Z,101387.41
2018-07-06T23:08:15.922Z,101388.88
2018-07-06T23:10:56.221Z,101387.45
2018-07-06T23:13:34.307Z,101380.78
2018-07-06T23:16:07.519Z,101385.34
2018-07-06T23:18:38.173Z,101386.80
2018-07-06T23:21:09.406Z,101384.69
2018-07-06T23:23:42.363Z,101385.49
2018-07-06T23:26:25.856Z,101390.55
2018-07-06T23:28:58.165Z,101391.08
2018-07-06T23:31:34.504Z,101392.29
2018-07-06T23:34:07.409Z,101389.27
2018-07-06T23:36:36.979Z,101391.13
2018-07-06T23:39:07.731Z,101390.47
2018-07-06T23:41:37.682Z,101402.30
2018-07-06T23:44:09.422Z,101400.94
2018-07-06T23:46:43.271Z,101392.04
2018-07-06T23:49:21.377Z,101395.22
2018-07-06T23:51:55.808Z,101401.70
2018-07-06T23:54:27.668Z,101403.68
2018-07-06T23:57:05.309Z,101396.10
2018-07-06T23:59:36.983Z,101406.95
